Strona główna
METAR-TAF:

METAR-TAF

Lotnisko :

Colmar, Francja

Szerokość geograficzna: 48-06-37N, Długość geograficzna: 7-21-33E, wysokość: 191 m

Aktualna obserwacja pogody

Raport powstał 10 minut temu, godzina 04:30 UTC
Wiatr 16 kt od północ
Temperatura 2°C
Wilgotność 69%
Ciśnienie 1024 hPa
Widzialność 10 km lub więcej
Zachmurzenie całkowite na wysokości 3500 ft

METAR: LFGA 300430Z AUTO 01016KT 9999 OVC035 02/M03 Q1024

czas: 06:40 (04:40 UTC)


TAF: brakujący

Obserwacja i prognoza pogody dla ponad 4000 lotnisk (raport METAR i TAF).

Dostępne stacje oznaczono żółtymi i czerwonymi punktami na mapie.

Najedź kursorem aby zobaczyć nazwę stacji.

Kliknij aby zobaczyć obserwacje i prognozy pogody.

Aby zmienić mapę: kliknij na zielony przycisk z czarnym krzyżykiem, aby powiększyć; na zielony przycisk z myślnikiem, aby pomniejszyć; na zielone strzałki, aby przejść do map sąsiednich.


METAR-TAF: